sensor_id;sensor_type;location;lat;lon;timestamp;P1;durP1;ratioP1;P2;durP2;ratioP2
16699;SDS011;8466;52.286;21.124;2023-12-29T00:02:24;18.40;;;10.60;;
16699;SDS011;8466;52.286;21.124;2023-12-29T00:04:53;15.67;;;9.90;;
16699;SDS011;8466;52.286;21.124;2023-12-29T00:07:23;18.30;;;10.30;;
16699;SDS011;8466;52.286;21.124;2023-12-29T00:09:58;14.43;;;9.07;;
16699;SDS011;8466;52.286;21.124;2023-12-29T00:12:26;14.97;;;9.80;;
16699;SDS011;8466;52.286;21.124;2023-12-29T00:14:56;11.87;;;8.47;;
16699;SDS011;8466;52.286;21.124;2023-12-29T00:17:25;16.43;;;9.37;;
16699;SDS011;8466;52.286;21.124;2023-12-29T00:19:54;13.17;;;8.20;;
16699;SDS011;8466;52.286;21.124;2023-12-29T00:22:23;14.73;;;8.43;;
16699;SDS011;8466;52.286;21.124;2023-12-29T00:24:54;15.97;;;10.33;;
16699;SDS011;8466;52.286;21.124;2023-12-29T00:27:24;13.17;;;8.77;;
16699;SDS011;8466;52.286;21.124;2023-12-29T00:29:53;11.53;;;7.83;;
16699;SDS011;8466;52.286;21.124;2023-12-29T00:32:21;12.33;;;8.30;;
16699;SDS011;8466;52.286;21.124;2023-12-29T00:34:50;12.03;;;7.40;;
16699;SDS011;8466;52.286;21.124;2023-12-29T00:37:19;9.90;;;7.37;;
16699;SDS011;8466;52.286;21.124;2023-12-29T00:39:47;9.03;;;6.80;;
16699;SDS011;8466;52.286;21.124;2023-12-29T00:42:17;11.77;;;7.70;;
16699;SDS011;8466;52.286;21.124;2023-12-29T00:44:47;11.10;;;7.33;;
16699;SDS011;8466;52.286;21.124;2023-12-29T00:47:16;12.17;;;7.67;;
16699;SDS011;8466;52.286;21.124;2023-12-29T00:49:46;12.20;;;7.40;;
16699;SDS011;8466;52.286;21.124;2023-12-29T00:52:15;10.80;;;7.00;;
16699;SDS011;8466;52.286;21.124;2023-12-29T00:54:43;9.40;;;6.73;;
16699;SDS011;8466;52.286;21.124;2023-12-29T00:57:12;13.57;;;7.87;;
16699;SDS011;8466;52.286;21.124;2023-12-29T00:59:41;9.67;;;6.70;;
16699;SDS011;8466;52.286;21.124;2023-12-29T01:02:12;8.50;;;6.07;;
16699;SDS011;8466;52.286;21.124;2023-12-29T01:04:40;9.53;;;6.60;;
16699;SDS011;8466;52.286;21.124;2023-12-29T01:07:09;9.10;;;6.20;;
16699;SDS011;8466;52.286;21.124;2023-12-29T01:09:38;8.27;;;5.77;;
16699;SDS011;8466;52.286;21.124;2023-12-29T01:12:08;8.40;;;5.70;;
16699;SDS011;8466;52.286;21.124;2023-12-29T01:14:36;7.83;;;5.70;;
16699;SDS011;8466;52.286;21.124;2023-12-29T01:17:05;9.17;;;5.87;;
16699;SDS011;8466;52.286;21.124;2023-12-29T01:19:35;7.20;;;5.37;;
16699;SDS011;8466;52.286;21.124;2023-12-29T01:22:04;7.23;;;5.50;;
16699;SDS011;8466;52.286;21.124;2023-12-29T01:24:33;6.40;;;5.33;;
16699;SDS011;8466;52.286;21.124;2023-12-29T01:27:11;7.03;;;5.37;;
16699;SDS011;8466;52.286;21.124;2023-12-29T01:29:40;6.87;;;5.47;;
16699;SDS011;8466;52.286;21.124;2023-12-29T01:32:09;5.97;;;5.30;;
16699;SDS011;8466;52.286;21.124;2023-12-29T01:34:39;8.40;;;5.40;;
16699;SDS011;8466;52.286;21.124;2023-12-29T01:37:08;7.63;;;5.97;;
16699;SDS011;8466;52.286;21.124;2023-12-29T01:39:37;7.17;;;6.07;;
16699;SDS011;8466;52.286;21.124;2023-12-29T01:42:06;8.07;;;6.37;;
16699;SDS011;8466;52.286;21.124;2023-12-29T01:44:37;8.47;;;6.50;;
16699;SDS011;8466;52.286;21.124;2023-12-29T01:47:10;7.60;;;6.07;;
16699;SDS011;8466;52.286;21.124;2023-12-29T01:49:45;7.73;;;6.07;;
16699;SDS011;8466;52.286;21.124;2023-12-29T01:52:14;8.67;;;6.57;;
16699;SDS011;8466;52.286;21.124;2023-12-29T01:54:45;8.17;;;6.17;;
16699;SDS011;8466;52.286;21.124;2023-12-29T01:57:15;8.20;;;6.20;;
16699;SDS011;8466;52.286;21.124;2023-12-29T01:59:44;8.37;;;6.43;;
16699;SDS011;8466;52.286;21.124;2023-12-29T02:02:15;9.77;;;6.67;;
16699;SDS011;8466;52.286;21.124;2023-12-29T02:04:46;9.83;;;6.80;;
16699;SDS011;8466;52.286;21.124;2023-12-29T02:07:16;10.07;;;6.97;;
16699;SDS011;8466;52.286;21.124;2023-12-29T02:09:52;9.10;;;6.73;;
16699;SDS011;8466;52.286;21.124;2023-12-29T02:12:28;7.97;;;6.60;;
16699;SDS011;8466;52.286;21.124;2023-12-29T02:14:58;8.73;;;6.63;;
16699;SDS011;8466;52.286;21.124;2023-12-29T02:17:27;7.90;;;5.93;;
16699;SDS011;8466;52.286;21.124;2023-12-29T02:20:00;9.17;;;6.80;;
16699;SDS011;8466;52.286;21.124;2023-12-29T02:22:30;9.17;;;7.13;;
16699;SDS011;8466;52.286;21.124;2023-12-29T02:25:00;10.00;;;7.30;;
16699;SDS011;8466;52.286;21.124;2023-12-29T02:27:31;9.40;;;7.33;;
16699;SDS011;8466;52.286;21.124;2023-12-29T02:30:10;10.30;;;7.60;;
16699;SDS011;8466;52.286;21.124;2023-12-29T02:32:42;9.17;;;7.30;;
16699;SDS011;8466;52.286;21.124;2023-12-29T02:35:14;9.03;;;6.67;;
16699;SDS011;8466;52.286;21.124;2023-12-29T02:37:46;10.90;;;7.67;;
16699;SDS011;8466;52.286;21.124;2023-12-29T02:40:17;10.43;;;8.10;;
16699;SDS011;8466;52.286;21.124;2023-12-29T02:42:46;11.33;;;8.73;;
16699;SDS011;8466;52.286;21.124;2023-12-29T02:45:15;12.47;;;9.20;;
16699;SDS011;8466;52.286;21.124;2023-12-29T02:47:46;9.50;;;8.10;;
16699;SDS011;8466;52.286;21.124;2023-12-29T02:50:16;10.73;;;8.07;;
16699;SDS011;8466;52.286;21.124;2023-12-29T02:52:44;11.23;;;8.80;;
16699;SDS011;8466;52.286;21.124;2023-12-29T02:55:13;10.57;;;8.13;;
16699;SDS011;8466;52.286;21.124;2023-12-29T02:57:44;11.00;;;8.83;;
16699;SDS011;8466;52.286;21.124;2023-12-29T03:00:13;12.80;;;8.97;;
16699;SDS011;8466;52.286;21.124;2023-12-29T03:02:42;11.47;;;9.07;;
16699;SDS011;8466;52.286;21.124;2023-12-29T03:05:11;13.00;;;9.07;;
16699;SDS011;8466;52.286;21.124;2023-12-29T03:07:40;12.20;;;9.43;;
16699;SDS011;8466;52.286;21.124;2023-12-29T03:10:09;14.50;;;9.77;;
16699;SDS011;8466;52.286;21.124;2023-12-29T03:12:38;11.90;;;9.53;;
16699;SDS011;8466;52.286;21.124;2023-12-29T03:15:08;12.53;;;9.27;;
16699;SDS011;8466;52.286;21.124;2023-12-29T03:17:37;12.23;;;9.47;;
16699;SDS011;8466;52.286;21.124;2023-12-29T03:20:06;11.30;;;9.30;;
16699;SDS011;8466;52.286;21.124;2023-12-29T03:22:35;11.27;;;9.47;;
16699;SDS011;8466;52.286;21.124;2023-12-29T03:25:04;14.47;;;10.77;;
16699;SDS011;8466;52.286;21.124;2023-12-29T03:27:34;13.33;;;10.30;;
16699;SDS011;8466;52.286;21.124;2023-12-29T03:30:03;14.60;;;10.23;;
16699;SDS011;8466;52.286;21.124;2023-12-29T03:32:34;13.47;;;10.47;;
16699;SDS011;8466;52.286;21.124;2023-12-29T03:35:03;14.67;;;11.00;;
16699;SDS011;8466;52.286;21.124;2023-12-29T03:37:33;14.23;;;10.80;;
16699;SDS011;8466;52.286;21.124;2023-12-29T03:40:02;15.80;;;10.80;;
16699;SDS011;8466;52.286;21.124;2023-12-29T03:42:31;15.27;;;11.47;;
16699;SDS011;8466;52.286;21.124;2023-12-29T03:44:59;15.07;;;11.10;;
16699;SDS011;8466;52.286;21.124;2023-12-29T03:47:28;15.33;;;11.07;;
16699;SDS011;8466;52.286;21.124;2023-12-29T03:49:59;14.07;;;10.90;;
16699;SDS011;8466;52.286;21.124;2023-12-29T03:52:28;14.80;;;10.90;;
16699;SDS011;8466;52.286;21.124;2023-12-29T03:54:57;15.37;;;11.40;;
16699;SDS011;8466;52.286;21.124;2023-12-29T03:57:26;15.40;;;11.27;;
16699;SDS011;8466;52.286;21.124;2023-12-29T03:59:55;16.43;;;11.77;;
16699;SDS011;8466;52.286;21.124;2023-12-29T04:02:23;18.13;;;12.37;;
16699;SDS011;8466;52.286;21.124;2023-12-29T04:04:52;16.00;;;12.07;;
16699;SDS011;8466;52.286;21.124;2023-12-29T04:07:22;16.33;;;12.00;;
16699;SDS011;8466;52.286;21.124;2023-12-29T04:09:51;14.00;;;11.70;;
16699;SDS011;8466;52.286;21.124;2023-12-29T04:12:18;15.50;;;12.00;;
16699;SDS011;8466;52.286;21.124;2023-12-29T04:14:47;14.80;;;12.13;;
16699;SDS011;8466;52.286;21.124;2023-12-29T04:17:16;18.13;;;13.33;;
16699;SDS011;8466;52.286;21.124;2023-12-29T04:19:44;17.57;;;12.30;;
16699;SDS011;8466;52.286;21.124;2023-12-29T04:22:13;17.23;;;13.37;;
16699;SDS011;8466;52.286;21.124;2023-12-29T04:24:43;17.27;;;12.60;;
16699;SDS011;8466;52.286;21.124;2023-12-29T04:27:12;17.83;;;12.33;;
16699;SDS011;8466;52.286;21.124;2023-12-29T04:29:42;16.20;;;12.17;;
16699;SDS011;8466;52.286;21.124;2023-12-29T04:32:11;14.73;;;12.30;;
16699;SDS011;8466;52.286;21.124;2023-12-29T04:34:40;16.57;;;12.37;;
16699;SDS011;8466;52.286;21.124;2023-12-29T04:37:09;20.40;;;13.40;;
16699;SDS011;8466;52.286;21.124;2023-12-29T04:39:38;15.70;;;13.03;;
16699;SDS011;8466;52.286;21.124;2023-12-29T04:42:08;19.43;;;14.00;;
16699;SDS011;8466;52.286;21.124;2023-12-29T04:44:38;18.13;;;13.57;;
16699;SDS011;8466;52.286;21.124;2023-12-29T04:47:07;19.30;;;13.63;;
16699;SDS011;8466;52.286;21.124;2023-12-29T04:49:36;19.30;;;13.17;;
16699;SDS011;8466;52.286;21.124;2023-12-29T04:52:05;17.17;;;13.70;;
16699;SDS011;8466;52.286;21.124;2023-12-29T04:54:34;18.00;;;13.80;;
16699;SDS011;8466;52.286;21.124;2023-12-29T04:57:03;17.03;;;13.90;;
16699;SDS011;8466;52.286;21.124;2023-12-29T04:59:33;17.70;;;13.77;;
16699;SDS011;8466;52.286;21.124;2023-12-29T05:02:02;18.33;;;13.23;;
16699;SDS011;8466;52.286;21.124;2023-12-29T05:04:31;18.75;;;14.73;;
16699;SDS011;8466;52.286;21.124;2023-12-29T05:07:00;16.23;;;13.37;;
16699;SDS011;8466;52.286;21.124;2023-12-29T05:09:28;19.07;;;14.33;;
16699;SDS011;8466;52.286;21.124;2023-12-29T05:11:57;19.37;;;13.87;;
16699;SDS011;8466;52.286;21.124;2023-12-29T05:14:25;19.87;;;13.83;;
16699;SDS011;8466;52.286;21.124;2023-12-29T05:16:56;18.63;;;13.90;;
16699;SDS011;8466;52.286;21.124;2023-12-29T05:19:25;17.27;;;13.47;;
16699;SDS011;8466;52.286;21.124;2023-12-29T05:21:53;17.97;;;13.63;;
16699;SDS011;8466;52.286;21.124;2023-12-29T05:24:22;18.43;;;12.93;;
16699;SDS011;8466;52.286;21.124;2023-12-29T05:26:51;16.43;;;12.80;;
16699;SDS011;8466;52.286;21.124;2023-12-29T05:29:19;20.20;;;13.97;;
16699;SDS011;8466;52.286;21.124;2023-12-29T05:31:48;17.40;;;13.13;;
16699;SDS011;8466;52.286;21.124;2023-12-29T05:34:18;18.57;;;13.83;;
16699;SDS011;8466;52.286;21.124;2023-12-29T05:36:47;16.17;;;12.80;;
16699;SDS011;8466;52.286;21.124;2023-12-29T05:39:16;15.63;;;11.77;;
16699;SDS011;8466;52.286;21.124;2023-12-29T05:41:45;15.97;;;12.63;;
16699;SDS011;8466;52.286;21.124;2023-12-29T05:44:14;15.93;;;12.10;;
16699;SDS011;8466;52.286;21.124;2023-12-29T05:46:45;16.20;;;12.57;;
16699;SDS011;8466;52.286;21.124;2023-12-29T05:49:14;14.03;;;12.10;;
16699;SDS011;8466;52.286;21.124;2023-12-29T05:51:45;15.83;;;12.10;;
16699;SDS011;8466;52.286;21.124;2023-12-29T05:54:13;18.33;;;12.50;;
16699;SDS011;8466;52.286;21.124;2023-12-29T05:56:43;16.63;;;13.10;;
16699;SDS011;8466;52.286;21.124;2023-12-29T05:59:11;16.43;;;12.87;;
16699;SDS011;8466;52.286;21.124;2023-12-29T06:01:40;15.10;;;12.70;;
16699;SDS011;8466;52.286;21.124;2023-12-29T06:04:09;15.48;;;13.23;;
16699;SDS011;8466;52.286;21.124;2023-12-29T06:06:38;15.50;;;13.00;;
16699;SDS011;8466;52.286;21.124;2023-12-29T06:09:10;17.17;;;12.57;;
16699;SDS011;8466;52.286;21.124;2023-12-29T06:11:39;15.70;;;12.83;;
16699;SDS011;8466;52.286;21.124;2023-12-29T06:14:08;16.60;;;12.83;;
16699;SDS011;8466;52.286;21.124;2023-12-29T06:16:36;17.57;;;13.03;;
16699;SDS011;8466;52.286;21.124;2023-12-29T06:19:05;18.50;;;13.40;;
16699;SDS011;8466;52.286;21.124;2023-12-29T06:21:34;16.67;;;12.90;;
16699;SDS011;8466;52.286;21.124;2023-12-29T06:24:08;19.10;;;15.87;;
16699;SDS011;8466;52.286;21.124;2023-12-29T06:26:38;25.93;;;19.03;;
16699;SDS011;8466;52.286;21.124;2023-12-29T06:29:10;16.70;;;13.40;;
16699;SDS011;8466;52.286;21.124;2023-12-29T06:31:39;15.88;;;14.15;;
16699;SDS011;8466;52.286;21.124;2023-12-29T06:34:10;18.10;;;13.70;;
16699;SDS011;8466;52.286;21.124;2023-12-29T06:36:38;15.83;;;13.13;;
16699;SDS011;8466;52.286;21.124;2023-12-29T06:39:08;18.63;;;12.53;;
16699;SDS011;8466;52.286;21.124;2023-12-29T06:41:38;17.67;;;12.57;;
16699;SDS011;8466;52.286;21.124;2023-12-29T06:44:06;17.13;;;12.60;;
16699;SDS011;8466;52.286;21.124;2023-12-29T06:46:36;14.33;;;12.13;;
16699;SDS011;8466;52.286;21.124;2023-12-29T06:49:05;14.73;;;12.57;;
16699;SDS011;8466;52.286;21.124;2023-12-29T06:51:36;16.30;;;12.40;;
16699;SDS011;8466;52.286;21.124;2023-12-29T06:54:07;16.33;;;13.17;;
16699;SDS011;8466;52.286;21.124;2023-12-29T06:56:37;17.87;;;13.33;;
16699;SDS011;8466;52.286;21.124;2023-12-29T06:59:06;18.93;;;13.70;;
16699;SDS011;8466;52.286;21.124;2023-12-29T07:01:38;18.10;;;13.47;;
16699;SDS011;8466;52.286;21.124;2023-12-29T07:04:08;19.63;;;14.30;;
16699;SDS011;8466;52.286;21.124;2023-12-29T07:06:37;18.13;;;12.77;;
16699;SDS011;8466;52.286;21.124;2023-12-29T07:09:07;17.67;;;12.93;;
16699;SDS011;8466;52.286;21.124;2023-12-29T07:11:37;19.23;;;13.33;;
16699;SDS011;8466;52.286;21.124;2023-12-29T07:14:06;21.67;;;14.23;;
16699;SDS011;8466;52.286;21.124;2023-12-29T07:16:35;16.63;;;13.03;;
16699;SDS011;8466;52.286;21.124;2023-12-29T07:19:03;19.27;;;13.23;;
16699;SDS011;8466;52.286;21.124;2023-12-29T07:21:33;21.03;;;14.40;;
16699;SDS011;8466;52.286;21.124;2023-12-29T07:24:02;17.70;;;13.47;;
16699;SDS011;8466;52.286;21.124;2023-12-29T07:26:32;18.27;;;12.63;;
16699;SDS011;8466;52.286;21.124;2023-12-29T07:29:05;18.03;;;13.37;;
16699;SDS011;8466;52.286;21.124;2023-12-29T07:31:37;17.50;;;12.87;;
16699;SDS011;8466;52.286;21.124;2023-12-29T07:34:06;17.23;;;12.83;;
16699;SDS011;8466;52.286;21.124;2023-12-29T07:36:37;16.40;;;12.67;;
16699;SDS011;8466;52.286;21.124;2023-12-29T07:39:07;21.27;;;11.87;;
16699;SDS011;8466;52.286;21.124;2023-12-29T07:41:39;13.83;;;11.63;;
16699;SDS011;8466;52.286;21.124;2023-12-29T07:44:11;14.37;;;12.13;;
16699;SDS011;8466;52.286;21.124;2023-12-29T07:46:39;16.93;;;12.33;;
16699;SDS011;8466;52.286;21.124;2023-12-29T07:49:08;15.43;;;11.23;;
16699;SDS011;8466;52.286;21.124;2023-12-29T07:51:38;13.60;;;10.70;;
16699;SDS011;8466;52.286;21.124;2023-12-29T07:54:09;14.80;;;10.87;;
16699;SDS011;8466;52.286;21.124;2023-12-29T07:56:38;14.40;;;11.20;;
16699;SDS011;8466;52.286;21.124;2023-12-29T07:59:06;15.67;;;12.07;;
16699;SDS011;8466;52.286;21.124;2023-12-29T08:01:36;13.03;;;10.93;;
16699;SDS011;8466;52.286;21.124;2023-12-29T08:04:06;14.00;;;11.40;;
16699;SDS011;8466;52.286;21.124;2023-12-29T08:06:37;16.07;;;11.97;;
16699;SDS011;8466;52.286;21.124;2023-12-29T08:09:06;17.40;;;11.77;;
16699;SDS011;8466;52.286;21.124;2023-12-29T08:11:35;15.53;;;12.03;;
16699;SDS011;8466;52.286;21.124;2023-12-29T08:14:03;17.50;;;14.03;;
16699;SDS011;8466;52.286;21.124;2023-12-29T08:16:38;26.70;;;19.50;;
16699;SDS011;8466;52.286;21.124;2023-12-29T08:19:07;23.73;;;18.03;;
16699;SDS011;8466;52.286;21.124;2023-12-29T08:21:37;26.77;;;19.80;;
16699;SDS011;8466;52.286;21.124;2023-12-29T08:24:06;21.17;;;14.50;;
16699;SDS011;8466;52.286;21.124;2023-12-29T08:26:34;16.77;;;13.17;;
16699;SDS011;8466;52.286;21.124;2023-12-29T08:29:10;15.97;;;12.40;;
16699;SDS011;8466;52.286;21.124;2023-12-29T08:31:40;14.50;;;11.73;;
16699;SDS011;8466;52.286;21.124;2023-12-29T08:34:09;15.60;;;10.53;;
16699;SDS011;8466;52.286;21.124;2023-12-29T08:36:39;13.07;;;11.37;;
16699;SDS011;8466;52.286;21.124;2023-12-29T08:39:07;12.83;;;11.23;;
16699;SDS011;8466;52.286;21.124;2023-12-29T08:41:38;14.30;;;11.23;;
16699;SDS011;8466;52.286;21.124;2023-12-29T08:44:07;12.47;;;10.73;;
16699;SDS011;8466;52.286;21.124;2023-12-29T08:46:42;13.37;;;11.07;;
16699;SDS011;8466;52.286;21.124;2023-12-29T08:49:11;15.47;;;12.00;;
16699;SDS011;8466;52.286;21.124;2023-12-29T08:51:40;15.33;;;11.13;;
16699;SDS011;8466;52.286;21.124;2023-12-29T08:54:09;15.10;;;11.00;;
16699;SDS011;8466;52.286;21.124;2023-12-29T08:56:39;17.63;;;11.30;;
16699;SDS011;8466;52.286;21.124;2023-12-29T08:59:07;16.87;;;11.57;;
16699;SDS011;8466;52.286;21.124;2023-12-29T09:01:36;16.07;;;10.83;;
16699;SDS011;8466;52.286;21.124;2023-12-29T09:04:06;15.50;;;12.20;;
16699;SDS011;8466;52.286;21.124;2023-12-29T09:06:35;13.23;;;11.57;;
16699;SDS011;8466;52.286;21.124;2023-12-29T09:09:05;15.07;;;10.67;;
16699;SDS011;8466;52.286;21.124;2023-12-29T09:11:39;12.70;;;10.43;;
16699;SDS011;8466;52.286;21.124;2023-12-29T09:14:10;12.20;;;10.80;;
16699;SDS011;8466;52.286;21.124;2023-12-29T09:16:39;14.43;;;11.03;;
16699;SDS011;8466;52.286;21.124;2023-12-29T09:19:14;12.23;;;10.17;;
16699;SDS011;8466;52.286;21.124;2023-12-29T09:22:01;11.57;;;9.07;;
16699;SDS011;8466;52.286;21.124;2023-12-29T09:24:35;11.20;;;9.47;;
16699;SDS011;8466;52.286;21.124;2023-12-29T09:27:05;11.97;;;9.27;;
16699;SDS011;8466;52.286;21.124;2023-12-29T09:29:49;10.97;;;9.10;;
16699;SDS011;8466;52.286;21.124;2023-12-29T09:55:15;11.90;;;8.30;;
16699;SDS011;8466;52.286;21.124;2023-12-29T09:58:03;11.73;;;8.57;;
16699;SDS011;8466;52.286;21.124;2023-12-29T10:00:52;10.13;;;8.73;;
16699;SDS011;8466;52.286;21.124;2023-12-29T10:03:27;10.93;;;8.10;;
16699;SDS011;8466;52.286;21.124;2023-12-29T10:06:00;11.03;;;7.83;;
16699;SDS011;8466;52.286;21.124;2023-12-29T10:08:51;9.80;;;8.03;;
16699;SDS011;8466;52.286;21.124;2023-12-29T10:11:29;8.80;;;7.00;;
16699;SDS011;8466;52.286;21.124;2023-12-29T10:14:14;6.07;;;5.47;;
16699;SDS011;8466;52.286;21.124;2023-12-29T10:16:57;6.13;;;4.97;;
16699;SDS011;8466;52.286;21.124;2023-12-29T10:19:37;7.37;;;4.67;;
16699;SDS011;8466;52.286;21.124;2023-12-29T11:18:44;6.90;;;4.60;;
16699;SDS011;8466;52.286;21.124;2023-12-29T11:21:13;6.60;;;4.73;;
16699;SDS011;8466;52.286;21.124;2023-12-29T11:23:44;6.80;;;4.40;;
16699;SDS011;8466;52.286;21.124;2023-12-29T11:26:14;5.43;;;4.10;;
16699;SDS011;8466;52.286;21.124;2023-12-29T11:28:45;6.83;;;4.50;;
16699;SDS011;8466;52.286;21.124;2023-12-29T11:31:16;4.07;;;3.73;;
16699;SDS011;8466;52.286;21.124;2023-12-29T11:33:48;6.00;;;4.63;;
16699;SDS011;8466;52.286;21.124;2023-12-29T11:36:23;7.57;;;5.30;;
16699;SDS011;8466;52.286;21.124;2023-12-29T11:39:01;22.53;;;14.67;;
16699;SDS011;8466;52.286;21.124;2023-12-29T11:41:38;26.37;;;17.33;;
16699;SDS011;8466;52.286;21.124;2023-12-29T11:44:13;10.57;;;6.97;;
16699;SDS011;8466;52.286;21.124;2023-12-29T11:46:53;9.60;;;6.60;;
16699;SDS011;8466;52.286;21.124;2023-12-29T11:49:33;7.53;;;6.33;;
16699;SDS011;8466;52.286;21.124;2023-12-29T11:52:32;7.80;;;5.40;;
16699;SDS011;8466;52.286;21.124;2023-12-29T11:55:08;6.40;;;5.43;;
16699;SDS011;8466;52.286;21.124;2023-12-29T11:57:37;5.77;;;4.43;;
16699;SDS011;8466;52.286;21.124;2023-12-29T12:00:07;7.83;;;4.63;;
16699;SDS011;8466;52.286;21.124;2023-12-29T12:02:37;6.13;;;4.37;;
16699;SDS011;8466;52.286;21.124;2023-12-29T12:05:10;6.47;;;4.33;;
16699;SDS011;8466;52.286;21.124;2023-12-29T12:07:58;8.00;;;4.80;;
16699;SDS011;8466;52.286;21.124;2023-12-29T12:10:31;9.13;;;4.60;;
16699;SDS011;8466;52.286;21.124;2023-12-29T12:13:06;8.40;;;5.10;;
16699;SDS011;8466;52.286;21.124;2023-12-29T12:15:36;6.93;;;4.27;;
16699;SDS011;8466;52.286;21.124;2023-12-29T12:18:10;5.87;;;4.97;;
16699;SDS011;8466;52.286;21.124;2023-12-29T12:20:41;6.43;;;5.17;;
16699;SDS011;8466;52.286;21.124;2023-12-29T12:23:10;6.90;;;5.20;;
16699;SDS011;8466;52.286;21.124;2023-12-29T12:25:42;6.72;;;4.78;;
16699;SDS011;8466;52.286;21.124;2023-12-29T12:28:13;5.28;;;4.78;;
16699;SDS011;8466;52.286;21.124;2023-12-29T12:30:42;5.90;;;4.80;;
16699;SDS011;8466;52.286;21.124;2023-12-29T12:33:12;6.97;;;4.83;;
16699;SDS011;8466;52.286;21.124;2023-12-29T12:35:43;5.83;;;4.07;;
16699;SDS011;8466;52.286;21.124;2023-12-29T12:38:13;5.53;;;4.20;;
16699;SDS011;8466;52.286;21.124;2023-12-29T12:40:47;5.73;;;4.77;;
16699;SDS011;8466;52.286;21.124;2023-12-29T12:43:16;4.37;;;3.97;;
16699;SDS011;8466;52.286;21.124;2023-12-29T12:45:47;6.67;;;4.30;;
16699;SDS011;8466;52.286;21.124;2023-12-29T12:48:23;4.70;;;4.23;;
16699;SDS011;8466;52.286;21.124;2023-12-29T12:51:06;6.27;;;4.40;;
16699;SDS011;8466;52.286;21.124;2023-12-29T12:53:38;6.73;;;4.50;;
16699;SDS011;8466;52.286;21.124;2023-12-29T12:56:08;6.77;;;4.73;;
16699;SDS011;8466;52.286;21.124;2023-12-29T12:58:37;7.03;;;4.73;;
16699;SDS011;8466;52.286;21.124;2023-12-29T13:01:06;5.37;;;4.87;;
16699;SDS011;8466;52.286;21.124;2023-12-29T13:03:36;7.93;;;5.00;;
16699;SDS011;8466;52.286;21.124;2023-12-29T13:06:09;5.03;;;4.53;;
16699;SDS011;8466;52.286;21.124;2023-12-29T13:08:41;8.87;;;5.43;;
16699;SDS011;8466;52.286;21.124;2023-12-29T13:11:14;6.57;;;4.60;;
16699;SDS011;8466;52.286;21.124;2023-12-29T13:13:52;6.30;;;4.97;;
16699;SDS011;8466;52.286;21.124;2023-12-29T13:16:33;6.87;;;4.57;;
16699;SDS011;8466;52.286;21.124;2023-12-29T13:19:17;6.70;;;4.73;;
16699;SDS011;8466;52.286;21.124;2023-12-29T13:21:49;6.63;;;4.80;;
16699;SDS011;8466;52.286;21.124;2023-12-29T13:24:24;6.80;;;4.97;;
16699;SDS011;8466;52.286;21.124;2023-12-29T13:26:54;9.47;;;4.80;;
16699;SDS011;8466;52.286;21.124;2023-12-29T13:29:27;6.70;;;4.37;;
16699;SDS011;8466;52.286;21.124;2023-12-29T13:32:04;6.07;;;4.70;;
16699;SDS011;8466;52.286;21.124;2023-12-29T13:34:39;6.83;;;4.67;;
16699;SDS011;8466;52.286;21.124;2023-12-29T13:37:20;8.50;;;4.93;;
16699;SDS011;8466;52.286;21.124;2023-12-29T13:39:54;5.13;;;4.50;;
16699;SDS011;8466;52.286;21.124;2023-12-29T13:42:30;7.60;;;4.63;;
16699;SDS011;8466;52.286;21.124;2023-12-29T13:45:01;5.07;;;4.37;;
16699;SDS011;8466;52.286;21.124;2023-12-29T13:47:34;5.03;;;4.20;;
16699;SDS011;8466;52.286;21.124;2023-12-29T13:50:04;7.37;;;4.63;;
16699;SDS011;8466;52.286;21.124;2023-12-29T13:52:38;9.03;;;5.43;;
16699;SDS011;8466;52.286;21.124;2023-12-29T13:55:07;6.20;;;4.57;;
16699;SDS011;8466;52.286;21.124;2023-12-29T13:57:36;6.77;;;4.87;;
16699;SDS011;8466;52.286;21.124;2023-12-29T14:00:18;7.97;;;4.70;;
16699;SDS011;8466;52.286;21.124;2023-12-29T14:02:48;9.53;;;6.37;;
16699;SDS011;8466;52.286;21.124;2023-12-29T14:05:27;6.80;;;5.00;;
16699;SDS011;8466;52.286;21.124;2023-12-29T14:08:05;7.72;;;4.95;;
16699;SDS011;8466;52.286;21.124;2023-12-29T14:10:40;7.67;;;5.00;;
16699;SDS011;8466;52.286;21.124;2023-12-29T14:13:15;6.00;;;4.70;;
16699;SDS011;8466;52.286;21.124;2023-12-29T14:15:45;6.23;;;4.67;;
16699;SDS011;8466;52.286;21.124;2023-12-29T14:18:25;7.13;;;4.73;;
16699;SDS011;8466;52.286;21.124;2023-12-29T14:21:19;6.53;;;5.23;;
16699;SDS011;8466;52.286;21.124;2023-12-29T14:24:05;8.37;;;5.53;;
16699;SDS011;8466;52.286;21.124;2023-12-29T14:26:36;7.70;;;4.97;;
16699;SDS011;8466;52.286;21.124;2023-12-29T14:29:07;5.67;;;4.63;;
16699;SDS011;8466;52.286;21.124;2023-12-29T14:31:38;6.33;;;4.57;;
16699;SDS011;8466;52.286;21.124;2023-12-29T14:34:08;7.47;;;5.00;;
16699;SDS011;8466;52.286;21.124;2023-12-29T14:36:40;6.97;;;4.87;;
16699;SDS011;8466;52.286;21.124;2023-12-29T14:39:11;7.53;;;4.30;;
16699;SDS011;8466;52.286;21.124;2023-12-29T14:41:41;6.50;;;5.15;;
16699;SDS011;8466;52.286;21.124;2023-12-29T14:44:12;6.40;;;5.23;;
16699;SDS011;8466;52.286;21.124;2023-12-29T14:46:41;5.87;;;4.70;;
16699;SDS011;8466;52.286;21.124;2023-12-29T14:49:10;5.90;;;3.83;;
16699;SDS011;8466;52.286;21.124;2023-12-29T14:51:39;5.40;;;4.40;;
16699;SDS011;8466;52.286;21.124;2023-12-29T14:54:10;6.73;;;4.87;;
16699;SDS011;8466;52.286;21.124;2023-12-29T14:56:39;6.00;;;4.67;;
16699;SDS011;8466;52.286;21.124;2023-12-29T14:59:08;6.03;;;4.90;;
16699;SDS011;8466;52.286;21.124;2023-12-29T15:01:40;7.30;;;5.13;;
16699;SDS011;8466;52.286;21.124;2023-12-29T15:04:08;5.40;;;4.17;;
16699;SDS011;8466;52.286;21.124;2023-12-29T15:06:39;5.67;;;4.30;;
16699;SDS011;8466;52.286;21.124;2023-12-29T15:09:09;6.07;;;4.40;;
16699;SDS011;8466;52.286;21.124;2023-12-29T15:11:40;8.00;;;5.93;;
16699;SDS011;8466;52.286;21.124;2023-12-29T15:14:09;6.37;;;4.70;;
16699;SDS011;8466;52.286;21.124;2023-12-29T15:16:37;5.87;;;4.80;;
16699;SDS011;8466;52.286;21.124;2023-12-29T15:19:06;6.67;;;5.87;;
16699;SDS011;8466;52.286;21.124;2023-12-29T15:21:35;6.10;;;4.93;;
16699;SDS011;8466;52.286;21.124;2023-12-29T15:24:04;7.57;;;5.93;;
16699;SDS011;8466;52.286;21.124;2023-12-29T15:26:35;5.67;;;4.53;;
16699;SDS011;8466;52.286;21.124;2023-12-29T15:29:04;9.67;;;6.07;;
16699;SDS011;8466;52.286;21.124;2023-12-29T15:31:33;9.30;;;6.60;;
16699;SDS011;8466;52.286;21.124;2023-12-29T15:34:02;8.27;;;6.27;;
16699;SDS011;8466;52.286;21.124;2023-12-29T15:36:31;8.30;;;6.37;;
16699;SDS011;8466;52.286;21.124;2023-12-29T15:39:00;13.27;;;8.73;;
16699;SDS011;8466;52.286;21.124;2023-12-29T15:41:32;13.00;;;9.13;;
16699;SDS011;8466;52.286;21.124;2023-12-29T15:44:03;8.73;;;6.83;;
16699;SDS011;8466;52.286;21.124;2023-12-29T15:46:34;10.60;;;6.57;;
16699;SDS011;8466;52.286;21.124;2023-12-29T15:49:03;8.20;;;6.55;;
16699;SDS011;8466;52.286;21.124;2023-12-29T15:51:35;13.43;;;9.00;;
16699;SDS011;8466;52.286;21.124;2023-12-29T15:54:04;12.47;;;8.37;;
16699;SDS011;8466;52.286;21.124;2023-12-29T15:56:34;13.37;;;8.60;;
16699;SDS011;8466;52.286;21.124;2023-12-29T15:59:05;8.50;;;7.07;;
16699;SDS011;8466;52.286;21.124;2023-12-29T16:01:34;9.30;;;6.63;;
16699;SDS011;8466;52.286;21.124;2023-12-29T16:04:04;8.47;;;7.33;;
16699;SDS011;8466;52.286;21.124;2023-12-29T16:06:33;7.47;;;6.20;;
16699;SDS011;8466;52.286;21.124;2023-12-29T16:09:04;11.07;;;6.50;;
16699;SDS011;8466;52.286;21.124;2023-12-29T16:11:33;10.97;;;7.27;;
16699;SDS011;8466;52.286;21.124;2023-12-29T16:14:02;9.77;;;7.00;;
16699;SDS011;8466;52.286;21.124;2023-12-29T16:16:32;11.87;;;7.13;;
16699;SDS011;8466;52.286;21.124;2023-12-29T16:19:01;9.57;;;6.87;;